createdAt,value
2022-12-13T00:01:54.099Z,44.67
2022-12-13T00:04:24.273Z,39.35
2022-12-13T00:06:54.850Z,45.30
2022-12-13T00:09:23.322Z,41.47
2022-12-13T00:11:52.293Z,43.63
2022-12-13T00:14:20.745Z,37.63
2022-12-13T00:16:51.488Z,39.17
2022-12-13T00:19:20.200Z,38.00
2022-12-13T00:21:49.020Z,39.25
2022-12-13T00:24:17.323Z,36.53
2022-12-13T00:26:45.481Z,39.83
2022-12-13T00:29:14.455Z,39.35
2022-12-13T00:31:58.630Z,35.90
2022-12-13T00:34:30.308Z,39.42
2022-12-13T00:36:59.710Z,35.55
2022-12-13T00:39:28.104Z,38.65
2022-12-13T00:41:56.730Z,33.42
2022-12-13T00:44:25.216Z,35.42
2022-12-13T00:46:53.406Z,36.42
2022-12-13T00:49:22.236Z,36.72
2022-12-13T00:51:51.776Z,37.65
2022-12-13T00:54:20.169Z,35.38
2022-12-13T00:56:49.016Z,32.85
2022-12-13T00:59:17.387Z,33.17
2022-12-13T01:01:46.335Z,36.95
2022-12-13T01:04:15.490Z,33.22
2022-12-13T01:06:45.984Z,34.55
2022-12-13T01:09:19.627Z,33.13
2022-12-13T01:14:16.969Z,31.92
2022-12-13T01:16:46.041Z,31.33
2022-12-13T01:19:14.392Z,32.70
2022-12-13T01:21:42.544Z,32.08
2022-12-13T01:24:11.850Z,30.92
2022-12-13T01:26:41.488Z,28.15
2022-12-13T01:29:11.570Z,31.58
2022-12-13T01:31:42.005Z,29.95
2022-12-13T01:34:13.036Z,29.00
2022-12-13T01:36:43.974Z,31.58
2022-12-13T01:39:15.037Z,31.20
2022-12-13T01:41:46.509Z,32.88
2022-12-13T01:44:52.252Z,29.65
2022-12-13T01:47:26.196Z,30.88
2022-12-13T01:49:57.246Z,31.42
2022-12-13T01:55:03.734Z,32.28
2022-12-13T01:57:36.851Z,29.52
2022-12-13T02:00:08.618Z,31.10
2022-12-13T02:02:37.302Z,31.58
2022-12-13T02:05:09.795Z,32.28
2022-12-13T02:07:39.985Z,29.00
2022-12-13T02:10:09.884Z,27.80
2022-12-13T02:12:41.511Z,31.60
2022-12-13T02:15:13.665Z,30.05
2022-12-13T02:17:59.020Z,30.85
2022-12-13T02:20:53.339Z,32.22
2022-12-13T02:23:42.278Z,29.02
2022-12-13T02:26:43.156Z,27.77
2022-12-13T02:29:41.586Z,27.48
2022-12-13T02:32:17.410Z,29.52
2022-12-13T02:34:51.575Z,30.38
2022-12-13T02:37:25.302Z,28.83
2022-12-13T02:40:01.698Z,27.08
2022-12-13T02:42:36.277Z,30.67
2022-12-13T02:45:15.739Z,30.40
2022-12-13T02:47:50.980Z,30.27
2022-12-13T02:50:21.028Z,30.65
2022-12-13T02:52:51.144Z,32.25
2022-12-13T02:55:21.123Z,29.75
2022-12-13T02:57:51.729Z,29.17
2022-12-13T03:00:24.576Z,32.15
2022-12-13T03:03:07.668Z,29.92
2022-12-13T03:06:00.995Z,29.77
2022-12-13T03:08:41.025Z,30.05
2022-12-13T03:11:13.057Z,27.42
2022-12-13T03:13:49.251Z,28.95
2022-12-13T03:16:27.470Z,32.47
2022-12-13T03:19:01.557Z,28.02
2022-12-13T03:21:30.308Z,28.52
2022-12-13T03:23:58.639Z,28.08
2022-12-13T03:26:28.537Z,28.58
2022-12-13T03:28:56.829Z,27.55
2022-12-13T03:31:25.259Z,30.77
2022-12-13T03:33:53.517Z,29.27
2022-12-13T03:36:23.334Z,30.08
2022-12-13T03:38:53.510Z,30.33
2022-12-13T03:41:24.855Z,30.42
2022-12-13T03:43:53.246Z,28.58
2022-12-13T03:46:21.475Z,29.73
2022-12-13T03:48:50.171Z,27.98
2022-12-13T03:51:18.658Z,29.70
2022-12-13T03:53:48.406Z,28.13
2022-12-13T03:56:16.986Z,31.60
2022-12-13T03:58:45.248Z,28.85
2022-12-13T04:01:15.644Z,29.92
2022-12-13T04:03:45.934Z,28.58
2022-12-13T04:06:21.718Z,24.55
2022-12-13T04:08:54.101Z,27.20
2022-12-13T04:11:43.269Z,26.77
2022-12-13T04:14:22.159Z,26.85
2022-12-13T04:16:51.560Z,24.13
2022-12-13T04:19:22.996Z,24.67
2022-12-13T04:21:52.274Z,25.65
2022-12-13T04:24:22.485Z,26.90
2022-12-13T04:27:00.653Z,23.48
2022-12-13T04:29:33.768Z,24.45
2022-12-13T04:32:03.436Z,23.63
2022-12-13T04:34:37.125Z,21.95
2022-12-13T04:37:06.109Z,24.73
2022-12-13T04:39:36.206Z,26.02
2022-12-13T04:42:04.825Z,25.55
2022-12-13T04:44:36.760Z,25.77
2022-12-13T04:47:05.942Z,27.90
2022-12-13T04:49:34.850Z,25.15
2022-12-13T04:52:03.598Z,27.27
2022-12-13T04:54:36.211Z,29.88
2022-12-13T04:57:07.748Z,26.42
2022-12-13T04:59:36.230Z,25.95
2022-12-13T05:02:05.604Z,29.02
2022-12-13T05:04:34.582Z,28.15
2022-12-13T05:07:03.453Z,26.83
2022-12-13T05:09:32.244Z,29.13
2022-12-13T05:12:00.776Z,26.70
2022-12-13T05:14:32.159Z,26.00
2022-12-13T05:17:00.479Z,27.15
2022-12-13T05:19:30.732Z,25.52
2022-12-13T05:22:01.459Z,26.38
2022-12-13T05:24:31.320Z,25.27
2022-12-13T05:26:59.787Z,25.20
2022-12-13T05:29:28.657Z,27.67
2022-12-13T05:31:59.012Z,28.65
2022-12-13T05:34:27.416Z,28.83
2022-12-13T05:36:55.911Z,26.60
2022-12-13T05:39:28.423Z,25.50
2022-12-13T05:42:01.982Z,27.92
2022-12-13T05:44:31.751Z,28.58
2022-12-13T05:47:02.771Z,24.75
2022-12-13T05:49:32.215Z,26.77
2022-12-13T05:52:00.607Z,26.00
2022-12-13T05:54:28.967Z,26.20
2022-12-13T05:56:57.676Z,30.17
2022-12-13T05:59:25.884Z,36.67
2022-12-13T06:01:54.425Z,26.20
2022-12-13T06:04:24.345Z,114.30
2022-12-13T06:06:53.075Z,98.28
2022-12-13T06:09:22.026Z,80.40
2022-12-13T06:11:51.288Z,74.72
2022-12-13T06:14:21.671Z,53.88
2022-12-13T06:16:52.206Z,33.78
2022-12-13T06:19:20.978Z,33.17
2022-12-13T06:21:50.636Z,30.98
2022-12-13T06:24:21.045Z,30.05
2022-12-13T06:26:49.604Z,31.25
2022-12-13T06:29:23.905Z,30.00
2022-12-13T06:32:01.120Z,27.77
2022-12-13T06:34:31.439Z,29.63
2022-12-13T06:37:01.375Z,29.13
2022-12-13T06:39:32.756Z,27.77
2022-12-13T06:42:03.042Z,29.83
2022-12-13T06:44:31.253Z,29.67
2022-12-13T06:47:12.113Z,30.23
2022-12-13T06:49:43.624Z,29.83
2022-12-13T06:52:15.723Z,31.02
2022-12-13T06:54:44.656Z,29.52
2022-12-13T06:57:13.483Z,27.55
2022-12-13T06:59:42.122Z,31.20
2022-12-13T07:02:24.469Z,29.20
2022-12-13T07:04:54.169Z,29.38
2022-12-13T07:07:24.728Z,29.88
2022-12-13T07:09:53.590Z,33.30
2022-12-13T07:12:22.015Z,30.75
2022-12-13T07:14:50.651Z,31.38
2022-12-13T07:17:32.623Z,30.15
2022-12-13T07:20:03.763Z,31.10
2022-12-13T07:22:34.469Z,34.03
2022-12-13T07:25:05.004Z,29.45
2022-12-13T07:27:33.429Z,34.38
2022-12-13T07:30:01.862Z,33.88
2022-12-13T07:32:30.797Z,29.33
2022-12-13T07:34:58.977Z,32.53
2022-12-13T07:37:30.076Z,31.45
2022-12-13T07:40:04.356Z,32.17
2022-12-13T07:42:33.594Z,35.97
2022-12-13T07:45:01.915Z,30.67
2022-12-13T07:47:31.331Z,33.78
2022-12-13T07:50:00.134Z,33.22
2022-12-13T07:52:30.752Z,36.05
2022-12-13T07:55:00.635Z,35.58
2022-12-13T07:57:29.799Z,34.95
2022-12-13T07:59:59.279Z,34.38
2022-12-13T08:02:27.698Z,35.17
2022-12-13T08:04:56.068Z,36.65
2022-12-13T08:07:24.782Z,34.67
2022-12-13T08:09:53.510Z,37.50
2022-12-13T08:12:23.307Z,36.47
2022-12-13T08:14:53.128Z,33.40
2022-12-13T08:17:22.260Z,33.60
2022-12-13T08:19:50.545Z,30.20
2022-12-13T08:22:23.690Z,34.10
2022-12-13T08:24:53.387Z,31.15
2022-12-13T08:27:22.909Z,31.67
2022-12-13T08:29:51.131Z,28.27
2022-12-13T08:32:19.360Z,28.83
2022-12-13T08:34:47.729Z,32.53
2022-12-13T08:37:15.928Z,30.13
2022-12-13T08:39:45.081Z,32.00
2022-12-13T08:42:18.339Z,30.13
2022-12-13T08:44:51.326Z,30.77
2022-12-13T08:47:24.507Z,29.10
2022-12-13T08:49:55.487Z,29.73
2022-12-13T08:52:30.669Z,30.52
2022-12-13T08:54:59.387Z,26.92
2022-12-13T08:57:27.845Z,28.08
2022-12-13T08:59:57.475Z,27.02
2022-12-13T09:02:25.972Z,26.65
2022-12-13T09:04:54.363Z,26.58
2022-12-13T09:07:22.520Z,26.88
2022-12-13T09:09:54.889Z,24.08
2022-12-13T09:12:29.999Z,25.90
2022-12-13T09:15:02.024Z,23.88
2022-12-13T09:17:37.148Z,24.45
2022-12-13T09:20:09.727Z,23.05
2022-12-13T09:23:02.270Z,24.75
2022-12-13T09:25:37.411Z,25.77
2022-12-13T09:28:08.114Z,25.50
2022-12-13T09:30:39.002Z,23.35
2022-12-13T09:33:18.091Z,26.17
2022-12-13T09:35:55.942Z,25.40
2022-12-13T09:38:24.465Z,22.77
2022-12-13T09:40:58.163Z,23.25
2022-12-13T09:43:33.829Z,23.77
2022-12-13T09:46:23.669Z,24.02
2022-12-13T09:49:01.615Z,23.85
2022-12-13T09:51:41.153Z,25.27
2022-12-13T09:54:16.301Z,24.42
2022-12-13T09:56:44.591Z,22.98
2022-12-13T09:59:15.326Z,26.55
2022-12-13T10:01:45.312Z,24.02
2022-12-13T10:04:16.119Z,25.38
2022-12-13T10:06:44.444Z,26.73
2022-12-13T10:09:15.598Z,22.77
2022-12-13T10:11:51.302Z,25.42
2022-12-13T10:14:27.363Z,25.27
2022-12-13T10:17:00.987Z,26.42
2022-12-13T10:22:02.478Z,24.02
2022-12-13T10:24:37.303Z,24.90
2022-12-13T10:27:14.202Z,23.85
2022-12-13T10:29:58.146Z,24.70
2022-12-13T10:34:56.503Z,23.98
2022-12-13T10:37:31.067Z,24.25
2022-12-13T10:40:00.090Z,25.88
2022-12-13T10:42:33.903Z,24.70
2022-12-13T10:45:23.699Z,24.27
2022-12-13T10:47:56.992Z,25.05
2022-12-13T10:50:30.219Z,24.88
2022-12-13T10:53:01.146Z,27.50
2022-12-13T10:55:32.173Z,27.52
2022-12-13T10:58:03.386Z,24.38
2022-12-13T11:00:36.163Z,25.98
2022-12-13T11:03:06.869Z,24.50
2022-12-13T11:05:37.582Z,25.48
2022-12-13T11:08:17.351Z,26.63
2022-12-13T11:10:45.694Z,25.42
2022-12-13T11:13:26.434Z,25.70
2022-12-13T11:15:58.367Z,27.63
2022-12-13T11:18:32.744Z,22.63
2022-12-13T11:21:03.165Z,25.88
2022-12-13T11:23:35.092Z,26.88
2022-12-13T11:26:09.421Z,24.98
2022-12-13T11:29:08.531Z,25.30
2022-12-13T11:31:48.107Z,24.88
2022-12-13T11:34:27.199Z,24.55
2022-12-13T11:37:02.792Z,23.33
2022-12-13T11:39:34.011Z,24.65
2022-12-13T11:42:14.106Z,26.98
2022-12-13T11:44:48.224Z,23.80
2022-12-13T11:47:27.763Z,21.77
2022-12-13T11:49:59.874Z,26.98
2022-12-13T11:52:32.267Z,21.75
2022-12-13T11:55:02.557Z,22.65
2022-12-13T11:57:43.018Z,21.65
2022-12-13T12:00:33.787Z,21.45
2022-12-13T12:03:19.615Z,23.20
2022-12-13T12:05:55.985Z,21.83
2022-12-13T12:08:35.195Z,22.15
2022-12-13T12:11:13.301Z,22.10
2022-12-13T12:13:51.355Z,21.42
2022-12-13T12:16:29.752Z,20.10
2022-12-13T12:19:01.596Z,23.00
2022-12-13T12:24:54.784Z,22.20
2022-12-13T12:27:32.190Z,21.38
2022-12-13T12:30:10.289Z,21.80
2022-12-13T12:32:46.537Z,23.45
2022-12-13T12:36:05.554Z,19.77
2022-12-13T12:39:03.299Z,20.42
2022-12-13T12:41:45.297Z,19.45
2022-12-13T12:44:24.171Z,20.55
2022-12-13T12:50:31.031Z,20.10
2022-12-13T12:53:19.263Z,21.83
2022-12-13T12:56:03.643Z,20.55
2022-12-13T12:58:39.864Z,20.55
2022-12-13T13:01:25.776Z,19.65
2022-12-13T13:04:01.509Z,22.90
2022-12-13T13:06:33.662Z,19.77
2022-12-13T13:09:06.423Z,24.00
2022-12-13T13:11:42.908Z,23.03
2022-12-13T13:14:33.576Z,22.58
2022-12-13T13:17:22.889Z,20.60
2022-12-13T13:20:04.099Z,18.70
2022-12-13T13:22:43.092Z,21.50
2022-12-13T13:25:32.291Z,18.48
2022-12-13T13:28:08.131Z,19.38
2022-12-13T13:30:37.430Z,19.70
2022-12-13T13:33:26.409Z,20.92
2022-12-13T13:35:55.068Z,20.45
2022-12-13T13:39:01.198Z,21.30
2022-12-13T13:41:58.053Z,20.40
2022-12-13T13:44:56.457Z,20.60
2022-12-13T13:47:42.905Z,18.85
2022-12-13T13:50:43.566Z,21.00
2022-12-13T13:53:41.892Z,17.73
2022-12-13T13:56:35.621Z,20.05
2022-12-13T13:59:46.388Z,22.50
2022-12-13T14:02:49.667Z,19.00
2022-12-13T14:06:06.808Z,19.75
2022-12-13T14:08:42.292Z,19.65
2022-12-13T14:11:47.581Z,23.00
2022-12-13T14:15:06.054Z,20.58
2022-12-13T14:18:02.309Z,24.10
2022-12-13T14:20:57.053Z,24.67
2022-12-13T14:23:39.930Z,24.05
2022-12-13T14:26:39.368Z,24.60
2022-12-13T14:29:15.394Z,25.58
2022-12-13T14:31:46.530Z,26.30
2022-12-13T14:34:22.771Z,25.33
2022-12-13T14:37:00.780Z,29.75
2022-12-13T14:39:31.265Z,27.70
2022-12-13T14:42:00.980Z,22.67
2022-12-13T14:44:31.565Z,28.52
2022-12-13T14:47:03.075Z,25.80
2022-12-13T14:49:34.147Z,24.35
2022-12-13T14:52:06.813Z,28.90
2022-12-13T14:54:42.962Z,29.37
2022-12-13T14:57:17.537Z,26.05
2022-12-13T14:59:50.521Z,31.55
2022-12-13T15:02:30.932Z,30.80
2022-12-13T15:05:01.653Z,28.75
2022-12-13T15:07:34.130Z,33.35
2022-12-13T15:10:06.737Z,33.47
2022-12-13T15:12:35.216Z,28.00
2022-12-13T15:15:06.484Z,32.00
2022-12-13T15:17:37.031Z,31.35
2022-12-13T15:20:28.438Z,33.83
2022-12-13T15:23:04.255Z,31.92
2022-12-13T15:25:35.222Z,32.05
2022-12-13T15:28:04.999Z,32.08
2022-12-13T15:30:36.124Z,28.52
2022-12-13T15:33:09.025Z,33.42
2022-12-13T15:35:38.626Z,28.70
2022-12-13T15:38:13.783Z,31.17
2022-12-13T15:40:57.107Z,30.08
2022-12-13T15:43:34.373Z,35.22
2022-12-13T15:46:03.051Z,34.50
2022-12-13T15:48:34.098Z,34.08
2022-12-13T15:51:14.641Z,33.78
2022-12-13T15:54:06.768Z,33.35
2022-12-13T15:56:37.265Z,32.22
2022-12-13T15:59:07.733Z,32.90
2022-12-13T16:01:37.341Z,35.17
2022-12-13T16:04:06.596Z,34.03
2022-12-13T16:06:35.460Z,34.05
2022-12-13T16:09:09.277Z,34.17
2022-12-13T16:11:44.454Z,31.40
2022-12-13T16:14:35.562Z,34.80
2022-12-13T16:17:10.305Z,33.70
2022-12-13T16:19:38.656Z,35.47
2022-12-13T16:22:08.368Z,35.83
2022-12-13T16:24:38.822Z,36.70
2022-12-13T16:27:08.640Z,34.92
2022-12-13T16:29:37.770Z,35.17
2022-12-13T16:32:08.760Z,38.38
2022-12-13T16:34:37.567Z,37.28
2022-12-13T16:37:08.884Z,38.83
2022-12-13T16:39:55.904Z,36.65
2022-12-13T16:42:26.156Z,35.92
2022-12-13T16:45:40.750Z,37.75
2022-12-13T16:47:49.158Z,35.10
2022-12-13T16:50:19.792Z,37.90
2022-12-13T16:52:48.125Z,40.30
2022-12-13T16:55:17.995Z,36.47
2022-12-13T16:57:55.672Z,42.88
2022-12-13T17:00:24.068Z,39.15
2022-12-13T17:02:52.347Z,36.05
2022-12-13T17:05:20.916Z,38.00
2022-12-13T17:07:49.402Z,41.40
2022-12-13T17:10:19.845Z,41.53
2022-12-13T17:12:48.452Z,43.85
2022-12-13T17:15:17.068Z,38.80
2022-12-13T17:17:46.981Z,41.58
2022-12-13T17:20:17.006Z,43.33
2022-12-13T17:22:46.529Z,41.70
2022-12-13T17:25:15.240Z,45.55
2022-12-13T17:27:45.631Z,46.75
2022-12-13T17:30:16.991Z,42.80
2022-12-13T17:32:45.568Z,48.00
2022-12-13T17:35:18.090Z,44.83
2022-12-13T17:37:47.018Z,51.22
2022-12-13T17:40:17.027Z,48.97
2022-12-13T17:42:49.493Z,52.25
2022-12-13T17:45:19.661Z,51.33
2022-12-13T17:47:47.938Z,57.47
2022-12-13T17:50:16.648Z,51.90
2022-12-13T17:52:45.196Z,55.60
2022-12-13T17:55:18.162Z,57.17
2022-12-13T17:57:48.461Z,57.63
2022-12-13T18:00:17.578Z,65.45
2022-12-13T18:02:55.071Z,62.33
2022-12-13T18:05:26.464Z,64.82
2022-12-13T18:07:54.758Z,60.60
2022-12-13T18:10:29.332Z,61.15
2022-12-13T18:13:00.242Z,60.60
2022-12-13T18:15:28.654Z,61.47
2022-12-13T18:18:13.928Z,60.30
2022-12-13T18:20:42.492Z,63.25
2022-12-13T18:23:11.175Z,64.15
2022-12-13T18:25:40.389Z,68.40
2022-12-13T18:28:10.502Z,64.75
2022-12-13T18:30:39.264Z,63.50
2022-12-13T18:33:07.480Z,62.78
2022-12-13T18:35:35.971Z,67.07
2022-12-13T18:38:04.330Z,67.90
2022-12-13T18:40:32.738Z,70.60
2022-12-13T18:43:01.264Z,70.68
2022-12-13T18:45:30.880Z,66.25
2022-12-13T18:47:59.196Z,68.78
2022-12-13T18:50:27.766Z,62.55
2022-12-13T18:52:55.984Z,60.42
2022-12-13T18:55:24.263Z,65.32
2022-12-13T18:57:52.819Z,66.47
2022-12-13T19:00:21.388Z,65.68
2022-12-13T19:02:51.299Z,69.85
2022-12-13T19:05:19.778Z,66.22
2022-12-13T19:07:48.000Z,61.00
2022-12-13T19:10:16.322Z,64.72
2022-12-13T19:12:47.713Z,65.45
2022-12-13T19:15:16.971Z,62.33
2022-12-13T19:17:46.716Z,68.80
2022-12-13T19:20:16.723Z,65.57
2022-12-13T19:22:45.144Z,67.28
2022-12-13T19:25:14.059Z,60.92
2022-12-13T19:27:46.558Z,62.17
2022-12-13T19:30:15.268Z,65.25
2022-12-13T19:32:43.521Z,67.18
2022-12-13T19:35:18.182Z,66.78
2022-12-13T19:37:46.429Z,74.00
2022-12-13T19:40:14.632Z,83.60
2022-12-13T19:42:43.276Z,70.75
2022-12-13T19:45:11.890Z,64.47
2022-12-13T19:47:40.145Z,69.72
2022-12-13T19:50:09.085Z,62.47
2022-12-13T19:52:38.671Z,64.13
2022-12-13T19:55:07.514Z,65.35
2022-12-13T19:57:35.999Z,65.80
2022-12-13T20:00:05.841Z,63.28
2022-12-13T20:02:34.157Z,62.08
2022-12-13T20:05:02.810Z,64.20
2022-12-13T20:07:31.175Z,59.35
2022-12-13T20:10:00.825Z,61.20
2022-12-13T20:12:30.016Z,59.40
2022-12-13T20:15:00.131Z,59.55
2022-12-13T20:17:28.458Z,63.92
2022-12-13T20:19:56.861Z,59.83
2022-12-13T20:22:25.258Z,60.80
2022-12-13T20:24:53.917Z,58.50
2022-12-13T20:27:24.058Z,58.30
2022-12-13T20:29:52.294Z,57.92
2022-12-13T20:32:21.664Z,54.45
2022-12-13T20:34:54.580Z,57.33
2022-12-13T20:37:23.638Z,59.88
2022-12-13T20:39:53.132Z,57.97
2022-12-13T20:42:21.462Z,62.00
2022-12-13T20:44:51.064Z,57.47
2022-12-13T20:47:19.493Z,60.95
2022-12-13T20:49:48.215Z,57.92
2022-12-13T20:52:17.912Z,59.67
2022-12-13T20:54:46.215Z,61.63
2022-12-13T20:57:14.596Z,58.60
2022-12-13T20:59:43.389Z,59.28
2022-12-13T21:02:13.460Z,58.63
2022-12-13T21:04:41.764Z,58.42
2022-12-13T21:07:10.030Z,57.17
2022-12-13T21:09:38.520Z,53.33
2022-12-13T21:12:06.882Z,54.38
2022-12-13T21:14:35.548Z,56.10
2022-12-13T21:17:09.737Z,59.80
2022-12-13T21:19:40.994Z,58.28
2022-12-13T21:22:09.580Z,54.17
2022-12-13T21:24:38.070Z,54.72
2022-12-13T21:27:06.355Z,54.70
2022-12-13T21:29:34.889Z,54.20
2022-12-13T21:32:03.637Z,50.78
2022-12-13T21:34:33.051Z,53.22
2022-12-13T21:37:03.078Z,51.78
2022-12-13T21:39:31.501Z,53.97
2022-12-13T21:42:00.073Z,50.60
2022-12-13T21:44:28.488Z,50.95
2022-12-13T21:47:13.341Z,50.08
2022-12-13T21:49:42.291Z,49.28
2022-12-13T21:52:18.739Z,50.17
2022-12-13T21:54:47.012Z,55.38
2022-12-13T21:57:33.321Z,53.13
2022-12-13T22:00:01.682Z,53.05
2022-12-13T22:02:29.939Z,51.45
2022-12-13T22:04:59.573Z,51.63
2022-12-13T22:07:31.157Z,51.47
2022-12-13T22:10:00.397Z,49.33
2022-12-13T22:12:33.786Z,47.95
2022-12-13T22:15:02.750Z,55.55
2022-12-13T22:17:35.825Z,54.25
2022-12-13T22:22:36.214Z,49.55
2022-12-13T22:25:04.635Z,48.67
2022-12-13T22:27:33.065Z,47.42
2022-12-13T22:30:01.521Z,51.08
2022-12-13T22:32:32.607Z,50.13
2022-12-13T22:35:01.222Z,51.10
2022-12-13T22:37:29.725Z,49.78
2022-12-13T22:39:59.350Z,47.80
2022-12-13T22:42:27.867Z,45.70
2022-12-13T22:44:56.231Z,44.83
2022-12-13T22:47:24.574Z,48.25
2022-12-13T22:49:52.843Z,45.10
2022-12-13T22:52:21.260Z,51.80
2022-12-13T22:54:49.447Z,47.28
2022-12-13T22:57:19.386Z,45.42
2022-12-13T22:59:47.756Z,46.25
2022-12-13T23:02:16.025Z,49.53
2022-12-13T23:04:44.410Z,45.95
2022-12-13T23:07:12.893Z,45.10
2022-12-13T23:09:41.181Z,43.42
2022-12-13T23:12:28.383Z,46.53
2022-12-13T23:14:58.157Z,46.35
2022-12-13T23:17:26.408Z,45.97
2022-12-13T23:19:55.932Z,40.95
2022-12-13T23:22:26.346Z,44.30
2022-12-13T23:24:54.707Z,46.88
2022-12-13T23:27:24.724Z,44.35
2022-12-13T23:29:53.240Z,41.08
2022-12-13T23:32:23.055Z,46.20
2022-12-13T23:34:51.547Z,42.70
2022-12-13T23:37:20.426Z,43.55
2022-12-13T23:39:48.598Z,44.67
2022-12-13T23:42:16.861Z,48.85
2022-12-13T23:44:45.238Z,44.90
2022-12-13T23:47:13.408Z,42.20
2022-12-13T23:49:43.000Z,44.03
2022-12-13T23:52:11.453Z,42.28
2022-12-13T23:54:39.629Z,46.17
2022-12-13T23:57:07.933Z,40.00
2022-12-13T23:59:36.232Z,44.28
